createdAt,value
2023-05-09T00:00:56.560Z,73.45
2023-05-09T00:03:24.546Z,72.92
2023-05-09T00:05:52.433Z,72.80
2023-05-09T00:08:20.369Z,72.98
2023-05-09T00:10:48.161Z,72.81
2023-05-09T00:13:16.139Z,72.67
2023-05-09T00:15:44.357Z,72.67
2023-05-09T00:18:14.686Z,72.62
2023-05-09T00:20:44.433Z,72.65
2023-05-09T00:23:12.382Z,72.77
2023-05-09T00:25:40.366Z,72.94
2023-05-09T00:28:08.537Z,73.23
2023-05-09T00:30:36.652Z,73.58
2023-05-09T00:33:04.624Z,73.54
2023-05-09T00:35:33.102Z,73.72
2023-05-09T00:38:01.236Z,73.85
2023-05-09T00:40:29.074Z,73.87
2023-05-09T00:42:58.810Z,74.03
2023-05-09T00:45:26.818Z,74.15
2023-05-09T00:47:55.893Z,74.39
2023-05-09T00:50:26.986Z,74.80
2023-05-09T00:52:54.971Z,74.96
2023-05-09T00:55:23.670Z,75.02
2023-05-09T00:57:52.003Z,75.14
2023-05-09T01:00:19.990Z,75.47
2023-05-09T01:02:53.203Z,75.67
2023-05-09T01:05:25.378Z,75.70
2023-05-09T01:08:22.057Z,75.50
2023-05-09T01:11:04.279Z,75.39
2023-05-09T01:13:40.045Z,75.43
2023-05-09T01:16:32.899Z,75.53
2023-05-09T01:19:19.716Z,75.62
2023-05-09T01:21:49.872Z,75.58
2023-05-09T01:24:38.787Z,75.72
2023-05-09T01:27:32.898Z,75.92
2023-05-09T01:30:03.907Z,76.00
2023-05-09T01:32:32.623Z,76.02
2023-05-09T01:35:04.543Z,76.22
2023-05-09T01:37:35.595Z,76.21
2023-05-09T01:40:14.881Z,76.53
2023-05-09T01:42:52.304Z,76.54
2023-05-09T01:45:22.332Z,76.54
2023-05-09T01:47:50.890Z,76.53
2023-05-09T01:50:20.907Z,76.51
2023-05-09T01:52:52.398Z,76.61
2023-05-09T01:55:25.778Z,76.60
2023-05-09T01:57:55.949Z,76.79
2023-05-09T02:00:24.543Z,76.87
2023-05-09T02:02:53.376Z,76.72
2023-05-09T02:05:26.251Z,76.89
2023-05-09T02:07:57.375Z,76.93
2023-05-09T02:10:26.825Z,76.93
2023-05-09T02:12:55.475Z,76.99
2023-05-09T02:15:24.584Z,77.20
2023-05-09T02:17:52.489Z,77.20
2023-05-09T02:20:20.570Z,77.08
2023-05-09T02:22:48.796Z,77.04
2023-05-09T02:25:18.633Z,77.18
2023-05-09T02:27:47.031Z,77.21
2023-05-09T02:30:25.403Z,77.27
2023-05-09T02:32:58.770Z,77.28
2023-05-09T02:35:28.730Z,77.32
2023-05-09T02:38:00.648Z,77.47
2023-05-09T02:40:30.646Z,77.70
2023-05-09T02:42:58.678Z,77.88
2023-05-09T02:45:26.892Z,77.92
2023-05-09T02:47:54.945Z,77.89
2023-05-09T02:50:23.800Z,77.82
2023-05-09T02:52:51.985Z,77.85
2023-05-09T02:55:20.045Z,78.00
2023-05-09T02:57:49.280Z,78.13
2023-05-09T03:00:21.644Z,78.14
2023-05-09T03:02:49.760Z,78.36
2023-05-09T03:05:18.321Z,78.39
2023-05-09T03:07:46.268Z,78.34
2023-05-09T03:10:14.735Z,78.41
2023-05-09T03:12:43.880Z,78.50
2023-05-09T03:15:13.605Z,78.43
2023-05-09T03:17:42.339Z,78.47
2023-05-09T03:20:10.639Z,78.48
2023-05-09T03:22:38.711Z,78.37
2023-05-09T03:25:08.572Z,78.32
2023-05-09T03:27:36.622Z,78.14
2023-05-09T03:30:07.079Z,78.11
2023-05-09T03:32:35.402Z,78.08
2023-05-09T03:35:03.685Z,78.23
2023-05-09T03:37:31.807Z,78.18
2023-05-09T03:40:00.060Z,78.23
2023-05-09T03:42:28.227Z,78.08
2023-05-09T03:44:58.084Z,78.15
2023-05-09T03:47:26.157Z,78.03
2023-05-09T03:49:54.789Z,78.04
2023-05-09T03:52:23.718Z,77.96
2023-05-09T03:54:52.215Z,77.85
2023-05-09T03:57:21.303Z,77.65
2023-05-09T03:59:50.440Z,77.45
2023-05-09T04:02:18.800Z,77.06
2023-05-09T04:04:47.426Z,76.73
2023-05-09T04:07:19.315Z,76.58
2023-05-09T04:09:47.681Z,76.31
2023-05-09T04:12:15.736Z,76.01
2023-05-09T04:14:45.668Z,75.87
2023-05-09T04:17:16.243Z,75.55
2023-05-09T04:19:44.429Z,75.51
2023-05-09T04:22:12.641Z,75.58
2023-05-09T04:24:40.575Z,75.25
2023-05-09T04:27:08.598Z,75.23
2023-05-09T04:29:36.904Z,75.29
2023-05-09T04:32:05.457Z,75.40
2023-05-09T04:34:33.831Z,75.56
2023-05-09T04:37:05.599Z,75.65
2023-05-09T04:39:33.450Z,75.48
2023-05-09T04:42:06.164Z,75.03
2023-05-09T04:44:35.891Z,75.26
2023-05-09T04:47:04.341Z,75.32
2023-05-09T04:49:32.178Z,75.49
2023-05-09T04:52:00.055Z,75.68
2023-05-09T04:54:27.920Z,75.89
2023-05-09T04:57:03.249Z,75.92
2023-05-09T04:59:39.364Z,75.70
2023-05-09T05:02:08.085Z,75.66
2023-05-09T05:04:36.556Z,75.75
2023-05-09T05:07:05.354Z,75.71
2023-05-09T05:09:33.945Z,75.67
2023-05-09T05:12:04.260Z,75.27
2023-05-09T05:14:33.570Z,75.01
2023-05-09T05:17:01.995Z,74.95
2023-05-09T05:19:29.922Z,74.68
2023-05-09T05:21:58.274Z,74.66
2023-05-09T05:24:27.027Z,74.72
2023-05-09T05:26:56.877Z,74.62
2023-05-09T05:29:25.548Z,74.54
2023-05-09T05:31:53.507Z,74.49
2023-05-09T05:34:22.882Z,74.48
2023-05-09T05:36:52.054Z,74.45
2023-05-09T05:39:20.134Z,74.31
2023-05-09T05:41:48.635Z,74.30
2023-05-09T05:44:16.971Z,74.12
2023-05-09T05:46:45.287Z,73.86
2023-05-09T05:49:13.105Z,73.57
2023-05-09T05:51:41.025Z,73.07
2023-05-09T05:54:09.364Z,73.08
2023-05-09T05:56:37.602Z,72.79
2023-05-09T05:59:06.768Z,72.78
2023-05-09T06:01:34.686Z,72.88
2023-05-09T06:04:03.363Z,72.56
2023-05-09T06:06:32.444Z,72.33
2023-05-09T06:09:00.718Z,72.09
2023-05-09T06:11:28.610Z,72.14
2023-05-09T06:13:56.831Z,71.82
2023-05-09T06:16:25.366Z,71.78
2023-05-09T06:18:55.966Z,71.41
2023-05-09T06:21:24.109Z,71.05
2023-05-09T06:24:06.658Z,71.22
2023-05-09T06:26:38.249Z,70.81
2023-05-09T06:29:06.550Z,70.65
2023-05-09T06:31:38.636Z,70.67
2023-05-09T06:34:08.016Z,70.22
2023-05-09T06:36:35.923Z,70.09
2023-05-09T06:39:03.741Z,70.02
2023-05-09T06:41:31.660Z,69.51
2023-05-09T06:43:59.529Z,69.19
2023-05-09T06:46:27.530Z,69.24
2023-05-09T06:48:55.439Z,69.07
2023-05-09T06:51:23.248Z,68.42
2023-05-09T06:53:51.525Z,68.63
2023-05-09T06:56:22.190Z,68.27
2023-05-09T06:58:55.782Z,67.20
2023-05-09T07:01:24.195Z,66.39
2023-05-09T07:03:52.277Z,66.80
2023-05-09T07:06:20.957Z,66.99
2023-05-09T07:08:48.924Z,67.14
2023-05-09T07:11:16.942Z,66.85
2023-05-09T07:13:44.775Z,66.63
2023-05-09T07:16:12.741Z,66.36
2023-05-09T07:18:40.783Z,66.73
2023-05-09T07:21:08.710Z,67.03
2023-05-09T07:23:36.644Z,67.05
2023-05-09T07:26:04.545Z,66.81
2023-05-09T07:28:32.515Z,66.84
2023-05-09T07:31:00.510Z,66.98
2023-05-09T07:33:28.389Z,66.06
2023-05-09T07:35:58.921Z,66.17
2023-05-09T07:38:26.850Z,66.22
2023-05-09T07:40:54.679Z,66.53
2023-05-09T07:43:22.857Z,67.08
2023-05-09T07:45:50.894Z,67.16
2023-05-09T07:48:19.385Z,67.26
2023-05-09T07:50:47.328Z,66.62
2023-05-09T07:53:15.247Z,66.80
2023-05-09T07:55:44.920Z,65.83
2023-05-09T07:58:12.780Z,66.52
2023-05-09T08:00:41.190Z,67.06
2023-05-09T08:03:09.311Z,67.11
2023-05-09T08:05:37.296Z,65.80
2023-05-09T08:08:05.375Z,65.85
2023-05-09T08:10:33.752Z,66.07
2023-05-09T08:13:01.726Z,65.62
2023-05-09T08:15:29.662Z,65.64
2023-05-09T08:17:57.528Z,66.54
2023-05-09T08:20:26.190Z,68.41
2023-05-09T08:22:53.975Z,68.46
2023-05-09T08:25:21.878Z,67.72
2023-05-09T08:27:51.033Z,67.90
2023-05-09T08:30:20.316Z,68.34
2023-05-09T08:32:48.128Z,68.38
2023-05-09T08:35:16.496Z,68.69
2023-05-09T08:37:45.573Z,69.06
2023-05-09T08:40:13.898Z,68.71
2023-05-09T08:42:45.956Z,69.03
2023-05-09T08:45:15.166Z,69.15
2023-05-09T08:47:43.127Z,69.10
2023-05-09T08:50:12.152Z,69.53
2023-05-09T08:52:40.764Z,69.81
2023-05-09T08:55:08.961Z,69.94
2023-05-09T08:57:37.469Z,69.49
2023-05-09T09:00:06.485Z,69.02
2023-05-09T09:02:35.906Z,68.31
2023-05-09T09:05:04.277Z,67.79
2023-05-09T09:07:35.085Z,67.89
2023-05-09T09:10:04.146Z,67.63
2023-05-09T09:12:33.867Z,67.46
2023-05-09T09:15:05.268Z,67.65
2023-05-09T09:17:36.528Z,67.70
2023-05-09T09:20:09.603Z,66.67
2023-05-09T09:22:42.832Z,66.59
2023-05-09T09:25:11.610Z,66.90
2023-05-09T09:27:41.664Z,66.84
2023-05-09T09:30:11.881Z,68.02
2023-05-09T09:32:40.357Z,67.71
2023-05-09T09:35:10.070Z,66.81
2023-05-09T09:37:40.461Z,66.23
2023-05-09T09:40:10.167Z,64.20
2023-05-09T09:42:46.560Z,64.00
2023-05-09T09:45:19.535Z,64.62
2023-05-09T09:47:50.293Z,64.32
2023-05-09T09:50:20.233Z,64.87
2023-05-09T09:52:56.629Z,63.77
2023-05-09T09:55:24.957Z,63.37
2023-05-09T09:57:53.056Z,61.08
2023-05-09T10:00:28.558Z,60.82
2023-05-09T10:02:58.611Z,61.18
2023-05-09T10:05:29.079Z,59.66
2023-05-09T10:08:01.983Z,58.91
2023-05-09T10:10:31.196Z,59.18
2023-05-09T10:13:12.544Z,59.60
2023-05-09T10:15:53.113Z,60.02
2023-05-09T10:18:27.559Z,60.46
2023-05-09T10:20:57.245Z,57.67
2023-05-09T10:23:25.687Z,57.54
2023-05-09T10:26:05.076Z,57.48
2023-05-09T10:28:35.924Z,57.52
2023-05-09T10:31:19.162Z,57.44
2023-05-09T10:33:49.395Z,58.55
2023-05-09T10:36:20.592Z,58.50
2023-05-09T10:38:56.329Z,57.96
2023-05-09T10:41:25.723Z,57.78
2023-05-09T10:43:57.323Z,57.19
2023-05-09T10:46:27.355Z,56.33
2023-05-09T10:48:56.124Z,56.91
2023-05-09T10:51:25.318Z,56.46
2023-05-09T10:53:55.955Z,56.39
2023-05-09T10:56:29.916Z,57.27
2023-05-09T10:58:59.082Z,56.00
2023-05-09T11:01:37.233Z,54.29
2023-05-09T11:04:16.657Z,53.64
2023-05-09T11:06:52.349Z,53.24
2023-05-09T11:09:39.282Z,53.92
2023-05-09T11:12:09.362Z,55.39
2023-05-09T11:14:42.993Z,55.65
2023-05-09T11:17:27.901Z,56.74
2023-05-09T11:20:01.629Z,56.04
2023-05-09T11:22:32.906Z,54.21
2023-05-09T11:25:05.574Z,52.59
2023-05-09T11:27:45.170Z,51.91
2023-05-09T11:30:15.537Z,53.08
2023-05-09T11:32:50.665Z,52.27
2023-05-09T11:35:21.312Z,51.26
2023-05-09T11:37:53.015Z,51.28
2023-05-09T11:40:22.632Z,50.62
2023-05-09T11:42:57.990Z,51.64
2023-05-09T11:45:31.846Z,50.64
2023-05-09T11:48:01.440Z,50.81
2023-05-09T11:50:29.510Z,51.05
2023-05-09T11:52:57.476Z,50.95
2023-05-09T11:55:25.908Z,51.80
2023-05-09T11:57:54.637Z,52.52
2023-05-09T12:00:24.681Z,53.32
2023-05-09T12:02:53.308Z,53.67
2023-05-09T12:05:23.261Z,53.79
2023-05-09T12:07:52.503Z,53.22
2023-05-09T12:10:26.073Z,53.12
2023-05-09T12:12:57.226Z,52.64
2023-05-09T12:15:25.154Z,52.94
2023-05-09T12:18:09.120Z,53.10
2023-05-09T12:20:50.339Z,53.19
2023-05-09T12:23:19.520Z,53.01
2023-05-09T12:25:55.415Z,53.86
2023-05-09T12:28:25.183Z,54.38
2023-05-09T12:30:54.158Z,54.35
2023-05-09T12:33:22.638Z,54.41
2023-05-09T12:36:03.534Z,54.66
2023-05-09T12:38:31.479Z,54.32
2023-05-09T12:41:12.990Z,54.39
2023-05-09T12:43:51.505Z,54.96
2023-05-09T12:46:20.662Z,54.97
2023-05-09T12:48:49.431Z,54.96
2023-05-09T12:51:21.788Z,55.70
2023-05-09T12:53:50.040Z,55.92
2023-05-09T12:56:20.407Z,55.05
2023-05-09T12:58:51.210Z,55.18
2023-05-09T13:01:23.107Z,55.31
2023-05-09T13:03:53.159Z,55.53
2023-05-09T13:06:21.750Z,53.80
2023-05-09T13:09:01.766Z,54.21
2023-05-09T13:11:30.119Z,54.92
2023-05-09T13:13:58.522Z,53.98
2023-05-09T13:16:27.108Z,53.49
2023-05-09T13:18:55.376Z,53.93
2023-05-09T13:21:23.352Z,53.95
2023-05-09T13:23:52.329Z,54.28
2023-05-09T13:26:21.541Z,54.51
2023-05-09T13:28:49.510Z,54.33
2023-05-09T13:31:18.768Z,54.00
2023-05-09T13:33:47.248Z,53.74
2023-05-09T13:36:17.385Z,54.47
2023-05-09T13:38:45.882Z,54.88
2023-05-09T13:41:20.197Z,54.23
2023-05-09T13:43:48.539Z,52.95
2023-05-09T13:46:16.557Z,53.29
2023-05-09T13:48:44.726Z,53.53
2023-05-09T13:51:12.766Z,53.34
2023-05-09T13:53:41.667Z,52.09
2023-05-09T13:56:09.762Z,51.85
2023-05-09T13:58:37.806Z,52.53
2023-05-09T14:01:05.770Z,52.65
2023-05-09T14:03:33.585Z,52.37
2023-05-09T14:06:01.768Z,52.70
2023-05-09T14:08:29.672Z,52.86
2023-05-09T14:10:57.489Z,53.02
2023-05-09T14:13:25.472Z,53.13
2023-05-09T14:15:53.405Z,53.22
2023-05-09T14:18:21.411Z,53.42
2023-05-09T14:20:49.417Z,53.74
2023-05-09T14:23:17.260Z,53.98
2023-05-09T14:25:45.343Z,54.03
2023-05-09T14:28:13.238Z,53.91
2023-05-09T14:30:41.305Z,53.88
2023-05-09T14:33:09.286Z,53.96
2023-05-09T14:35:40.388Z,54.21
2023-05-09T14:38:09.317Z,53.70
2023-05-09T14:40:37.222Z,54.06
2023-05-09T14:43:05.906Z,54.69
2023-05-09T14:45:33.851Z,54.70
2023-05-09T14:48:03.503Z,55.07
2023-05-09T14:50:32.061Z,55.09
2023-05-09T14:53:01.018Z,54.41
2023-05-09T14:55:31.288Z,54.56
2023-05-09T14:57:59.499Z,53.68
2023-05-09T15:00:28.611Z,53.59
2023-05-09T15:02:57.127Z,52.85
2023-05-09T15:05:25.283Z,53.45
2023-05-09T15:07:53.694Z,54.09
2023-05-09T15:10:21.832Z,53.79
2023-05-09T15:12:49.961Z,52.87
2023-05-09T15:15:20.596Z,51.06
2023-05-09T15:17:48.489Z,50.69
2023-05-09T15:20:20.430Z,49.76
2023-05-09T15:22:49.953Z,49.42
2023-05-09T15:25:18.358Z,48.02
2023-05-09T15:27:46.301Z,47.59
2023-05-09T15:30:14.743Z,48.17
2023-05-09T15:32:42.971Z,48.56
2023-05-09T15:35:11.046Z,48.59
2023-05-09T15:37:39.376Z,48.80
2023-05-09T15:40:08.443Z,49.10
2023-05-09T15:42:37.681Z,49.45
2023-05-09T15:45:06.564Z,49.33
2023-05-09T15:47:34.541Z,49.00
2023-05-09T15:50:02.751Z,48.88
2023-05-09T15:52:30.856Z,49.26
2023-05-09T15:54:59.562Z,49.75
2023-05-09T15:57:27.546Z,50.14
2023-05-09T15:59:56.199Z,50.40
2023-05-09T16:02:24.718Z,50.63
2023-05-09T16:04:52.795Z,50.99
2023-05-09T16:07:20.985Z,51.09
2023-05-09T16:09:49.219Z,51.16
2023-05-09T16:12:17.585Z,50.88
2023-05-09T16:14:45.563Z,50.87
2023-05-09T16:17:13.534Z,51.63
2023-05-09T16:19:41.433Z,51.72
2023-05-09T16:22:09.984Z,51.18
2023-05-09T16:24:37.773Z,51.34
2023-05-09T16:27:05.666Z,51.68
2023-05-09T16:29:33.591Z,52.10
2023-05-09T16:32:01.579Z,52.02
2023-05-09T16:34:29.675Z,52.08
2023-05-09T16:36:57.628Z,51.73
2023-05-09T16:39:28.043Z,52.22
2023-05-09T16:41:57.117Z,52.60
2023-05-09T16:44:26.043Z,52.87
2023-05-09T16:46:55.400Z,53.15
2023-05-09T16:49:23.417Z,53.81
2023-05-09T16:51:51.421Z,53.73
2023-05-09T16:54:19.332Z,53.81
2023-05-09T16:56:47.247Z,54.25
2023-05-09T16:59:15.330Z,54.73
2023-05-09T17:01:43.672Z,55.21
2023-05-09T17:04:11.733Z,55.60
2023-05-09T17:06:40.101Z,56.18
2023-05-09T17:09:14.903Z,56.74
2023-05-09T17:11:43.277Z,56.37
2023-05-09T17:14:11.213Z,56.21
2023-05-09T17:16:39.151Z,56.27
2023-05-09T17:19:07.282Z,56.58
2023-05-09T17:21:35.871Z,56.74
2023-05-09T17:24:04.143Z,57.07
2023-05-09T17:26:32.018Z,57.43
2023-05-09T17:28:59.995Z,57.88
2023-05-09T17:31:27.919Z,58.05
2023-05-09T17:33:56.047Z,57.45
2023-05-09T17:36:24.084Z,57.54
2023-05-09T17:38:52.490Z,57.81
2023-05-09T17:41:20.612Z,57.44
2023-05-09T17:43:49.298Z,57.55
2023-05-09T17:46:17.437Z,57.67
2023-05-09T17:48:47.829Z,57.74
2023-05-09T17:51:16.844Z,57.33
2023-05-09T17:53:44.919Z,56.87
2023-05-09T17:56:13.175Z,56.27
2023-05-09T17:58:41.075Z,55.74
2023-05-09T18:01:09.837Z,55.78
2023-05-09T18:03:39.365Z,55.61
2023-05-09T18:06:07.483Z,54.79
2023-05-09T18:08:36.737Z,54.49
2023-05-09T18:11:04.764Z,54.26
2023-05-09T18:13:34.434Z,54.25
2023-05-09T18:16:02.975Z,54.14
2023-05-09T18:18:32.490Z,54.22
2023-05-09T18:21:00.644Z,54.51
2023-05-09T18:23:28.748Z,54.95
2023-05-09T18:25:56.934Z,55.22
2023-05-09T18:28:25.684Z,55.47
2023-05-09T18:30:55.641Z,55.92
2023-05-09T18:33:24.770Z,56.26
2023-05-09T18:35:54.355Z,56.65
2023-05-09T18:38:23.685Z,57.01
2023-05-09T18:40:52.391Z,57.17
2023-05-09T18:43:21.842Z,57.48
2023-05-09T18:45:50.254Z,57.72
2023-05-09T18:48:18.978Z,57.56
2023-05-09T18:50:47.703Z,57.63
2023-05-09T18:53:15.823Z,59.74
2023-05-09T18:55:43.840Z,60.39
2023-05-09T18:58:12.462Z,60.72
2023-05-09T19:00:40.462Z,59.05
2023-05-09T19:03:08.546Z,58.91
2023-05-09T19:05:39.779Z,58.77
2023-05-09T19:08:07.802Z,58.88
2023-05-09T19:10:35.894Z,59.11
2023-05-09T19:13:06.081Z,59.41
2023-05-09T19:15:34.897Z,59.56
2023-05-09T19:18:03.770Z,59.75
2023-05-09T19:20:31.994Z,60.13
2023-05-09T19:23:00.114Z,60.68
2023-05-09T19:25:30.518Z,61.22
2023-05-09T19:27:58.612Z,61.36
2023-05-09T19:30:27.060Z,61.87
2023-05-09T19:32:55.058Z,62.22
2023-05-09T19:35:23.192Z,62.51
2023-05-09T19:37:51.357Z,62.64
2023-05-09T19:40:19.401Z,63.01
2023-05-09T19:42:47.988Z,63.33
2023-05-09T19:45:16.819Z,63.23
2023-05-09T19:47:46.663Z,63.31
2023-05-09T19:50:15.462Z,63.14
2023-05-09T19:52:45.260Z,63.00
2023-05-09T19:55:14.915Z,62.84
2023-05-09T19:57:43.990Z,62.78
2023-05-09T20:00:12.731Z,62.65
2023-05-09T20:02:40.823Z,62.66
2023-05-09T20:05:09.316Z,62.67
2023-05-09T20:07:37.216Z,62.77
2023-05-09T20:10:05.687Z,62.69
2023-05-09T20:12:33.813Z,62.68
2023-05-09T20:15:03.010Z,62.80
2023-05-09T20:17:35.785Z,62.87
2023-05-09T20:20:06.824Z,62.79
2023-05-09T20:22:34.898Z,63.07
2023-05-09T20:25:02.951Z,63.34
2023-05-09T20:27:31.033Z,63.23
2023-05-09T20:30:00.663Z,63.31
2023-05-09T20:32:28.735Z,63.28
2023-05-09T20:34:57.153Z,63.49
2023-05-09T20:37:57.363Z,63.67
2023-05-09T20:40:43.578Z,63.74
2023-05-09T20:43:27.919Z,63.85
2023-05-09T20:46:21.912Z,64.08
2023-05-09T20:48:49.939Z,64.20
2023-05-09T20:51:23.939Z,64.43
2023-05-09T20:54:04.011Z,64.62
2023-05-09T20:56:33.285Z,64.64
2023-05-09T20:59:03.792Z,64.70
2023-05-09T21:01:46.732Z,64.77
2023-05-09T21:04:25.558Z,64.99
2023-05-09T21:06:53.487Z,65.15
2023-05-09T21:09:21.423Z,65.46
2023-05-09T21:11:49.249Z,65.92
2023-05-09T21:14:17.029Z,66.24
2023-05-09T21:16:46.495Z,66.53
2023-05-09T21:19:14.476Z,66.85
2023-05-09T21:21:42.256Z,67.26
2023-05-09T21:24:10.638Z,67.68
2023-05-09T21:26:38.592Z,67.88
2023-05-09T21:29:06.770Z,67.87
2023-05-09T21:31:35.870Z,68.33
2023-05-09T21:34:09.882Z,68.34
2023-05-09T21:36:39.890Z,68.72
2023-05-09T21:39:09.699Z,68.74
2023-05-09T21:41:40.000Z,69.06
2023-05-09T21:44:08.035Z,69.15
2023-05-09T21:46:35.892Z,69.27
2023-05-09T21:49:04.199Z,69.21
2023-05-09T21:51:33.553Z,69.39
2023-05-09T21:54:01.645Z,69.28
2023-05-09T21:56:29.847Z,69.41
2023-05-09T21:58:57.864Z,69.11
2023-05-09T22:01:25.993Z,68.91
2023-05-09T22:03:54.139Z,69.10
2023-05-09T22:06:22.244Z,69.10
2023-05-09T22:08:51.330Z,69.07
2023-05-09T22:11:19.419Z,69.46
2023-05-09T22:13:47.327Z,69.67
2023-05-09T22:16:15.275Z,69.87
2023-05-09T22:18:43.360Z,69.72
2023-05-09T22:21:11.175Z,69.74
2023-05-09T22:23:38.986Z,69.93
2023-05-09T22:26:07.037Z,69.89
2023-05-09T22:28:35.306Z,70.00
2023-05-09T22:31:06.776Z,70.30
2023-05-09T22:33:34.734Z,70.18
2023-05-09T22:36:02.651Z,70.14
2023-05-09T22:38:30.596Z,70.43
2023-05-09T22:40:58.761Z,70.89
2023-05-09T22:43:33.711Z,71.30
2023-05-09T22:46:06.630Z,71.36
2023-05-09T22:48:34.579Z,71.49
2023-05-09T22:51:02.690Z,72.32
2023-05-09T22:53:31.370Z,72.39
2023-05-09T22:55:59.302Z,72.22
2023-05-09T22:58:27.230Z,72.69
2023-05-09T23:00:55.106Z,72.96
2023-05-09T23:03:23.228Z,73.62
2023-05-09T23:05:51.526Z,72.92
2023-05-09T23:08:19.386Z,72.73
2023-05-09T23:10:47.207Z,72.62
2023-05-09T23:13:15.041Z,73.23
2023-05-09T23:15:43.079Z,73.57
2023-05-09T23:18:11.127Z,73.94
2023-05-09T23:20:38.965Z,73.99
2023-05-09T23:23:06.820Z,74.67
2023-05-09T23:25:34.540Z,74.64
2023-05-09T23:28:02.628Z,74.45
2023-05-09T23:30:30.583Z,74.45
2023-05-09T23:32:58.461Z,75.64
2023-05-09T23:35:26.889Z,75.41
2023-05-09T23:37:54.626Z,75.34
2023-05-09T23:40:22.691Z,75.58
2023-05-09T23:42:50.533Z,75.95
2023-05-09T23:45:18.723Z,76.11
2023-05-09T23:47:46.738Z,76.09
2023-05-09T23:50:15.181Z,76.38
2023-05-09T23:52:43.324Z,76.11
2023-05-09T23:55:11.569Z,76.34
2023-05-09T23:57:39.395Z,76.76
